createdAt,value
2023-01-27T00:01:46.632Z,9.52
2023-01-27T00:04:48.863Z,12.70
2023-01-27T00:07:50.965Z,12.45
2023-01-27T00:11:17.134Z,15.40
2023-01-27T00:14:18.897Z,12.90
2023-01-27T00:17:20.864Z,9.70
2023-01-27T00:20:43.351Z,18.27
2023-01-27T00:24:03.888Z,10.23
2023-01-27T00:27:09.164Z,13.07
2023-01-27T00:30:13.352Z,15.35
2023-01-27T00:33:29.913Z,10.35
2023-01-27T00:36:31.968Z,14.32
2023-01-27T00:39:34.767Z,8.77
2023-01-27T00:42:36.827Z,11.75
2023-01-27T00:45:51.354Z,13.23
2023-01-27T00:48:53.535Z,21.52
2023-01-27T00:51:55.431Z,10.23
2023-01-27T00:54:57.305Z,16.45
2023-01-27T00:57:59.277Z,11.65
2023-01-27T01:01:03.827Z,14.23
2023-01-27T01:04:05.825Z,10.05
2023-01-27T01:07:07.885Z,13.60
2023-01-27T01:10:10.673Z,12.25
2023-01-27T01:13:12.909Z,9.35
2023-01-27T01:16:20.938Z,14.40
2023-01-27T01:19:23.270Z,12.93
2023-01-27T01:22:25.226Z,13.27
2023-01-27T01:25:27.112Z,15.07
2023-01-27T01:28:29.390Z,16.40
2023-01-27T01:31:31.413Z,14.65
2023-01-27T01:34:33.485Z,12.70
2023-01-27T01:37:35.539Z,8.45
2023-01-27T01:40:44.432Z,10.60
2023-01-27T01:43:46.347Z,14.27
2023-01-27T01:46:48.451Z,11.20
2023-01-27T01:49:50.563Z,15.57
2023-01-27T01:52:54.380Z,10.38
2023-01-27T01:56:01.071Z,16.33
2023-01-27T01:59:11.721Z,11.50
2023-01-27T02:02:19.113Z,16.08
2023-01-27T02:05:27.533Z,6.88
2023-01-27T02:08:34.112Z,14.10
2023-01-27T02:11:36.028Z,8.30
2023-01-27T02:14:40.027Z,14.98
2023-01-27T02:17:42.249Z,12.15
2023-01-27T02:20:47.249Z,11.45
2023-01-27T02:23:56.962Z,7.50
2023-01-27T02:26:58.883Z,7.53
2023-01-27T02:30:01.162Z,12.30
2023-01-27T02:33:03.382Z,9.98
2023-01-27T02:36:15.044Z,7.68
2023-01-27T02:39:19.969Z,10.10
2023-01-27T02:42:22.604Z,14.70
2023-01-27T02:45:25.033Z,15.27
2023-01-27T02:48:27.086Z,24.30
2023-01-27T02:51:29.394Z,8.05
2023-01-27T02:54:31.485Z,8.98
2023-01-27T02:57:33.522Z,9.07
2023-01-27T03:00:35.588Z,11.95
2023-01-27T03:03:44.309Z,10.55
2023-01-27T03:06:46.309Z,13.63
2023-01-27T03:09:48.556Z,20.63
2023-01-27T03:12:50.461Z,17.63
2023-01-27T03:16:12.752Z,10.32
2023-01-27T03:19:16.120Z,10.40
2023-01-27T03:22:18.113Z,14.07
2023-01-27T03:25:20.116Z,11.52
2023-01-27T03:28:22.576Z,11.93
2023-01-27T03:31:25.059Z,15.43
2023-01-27T03:34:27.171Z,15.57
2023-01-27T03:37:48.596Z,14.70
2023-01-27T03:41:09.372Z,13.30
2023-01-27T03:44:29.853Z,11.13
2023-01-27T03:47:31.954Z,15.70
2023-01-27T03:50:43.237Z,15.88
2023-01-27T03:53:45.663Z,10.38
2023-01-27T03:56:48.163Z,10.70
2023-01-27T03:59:50.260Z,15.13
2023-01-27T04:03:10.775Z,12.35
2023-01-27T04:06:33.571Z,12.95
2023-01-27T04:09:36.970Z,10.73
2023-01-27T04:12:39.255Z,11.63
2023-01-27T04:15:41.308Z,12.52
2023-01-27T04:18:43.978Z,11.70
2023-01-27T04:21:46.936Z,16.40
2023-01-27T04:24:48.895Z,13.25
2023-01-27T04:27:50.952Z,14.50
2023-01-27T04:30:53.050Z,13.27
2023-01-27T04:33:55.119Z,15.50
2023-01-27T04:36:57.425Z,19.80
2023-01-27T04:39:59.450Z,16.48
2023-01-27T04:43:01.682Z,17.92
2023-01-27T04:46:04.103Z,17.25
2023-01-27T04:49:07.323Z,17.63
2023-01-27T04:52:09.425Z,17.23
2023-01-27T04:55:12.214Z,16.35
2023-01-27T04:58:15.079Z,17.60
2023-01-27T05:01:17.127Z,19.40
2023-01-27T05:04:19.129Z,26.52
2023-01-27T05:07:21.092Z,28.58
2023-01-27T05:10:23.253Z,41.15
2023-01-27T05:13:25.387Z,32.58
2023-01-27T05:16:27.836Z,36.67
2023-01-27T05:19:30.081Z,27.15
2023-01-27T05:22:32.288Z,30.67
2023-01-27T05:25:34.140Z,34.78
2023-01-27T05:28:38.880Z,35.08
2023-01-27T05:31:41.100Z,33.80
2023-01-27T05:34:46.156Z,34.97
2023-01-27T05:37:48.185Z,38.58
2023-01-27T05:40:50.449Z,39.22
2023-01-27T05:43:54.370Z,36.45
2023-01-27T05:46:56.510Z,36.25
2023-01-27T05:49:58.859Z,30.80
2023-01-27T05:53:00.869Z,26.85
2023-01-27T05:56:04.210Z,25.48
2023-01-27T06:02:08.189Z,26.50
2023-01-27T06:05:10.396Z,22.08
2023-01-27T06:08:12.485Z,24.83
2023-01-27T06:11:16.592Z,17.08
2023-01-27T06:14:19.666Z,15.88
2023-01-27T06:17:21.582Z,13.68
2023-01-27T06:20:23.710Z,12.90
2023-01-27T06:23:25.938Z,14.38
2023-01-27T06:26:27.870Z,13.38
2023-01-27T06:29:30.312Z,13.00
2023-01-27T06:32:32.294Z,15.23
2023-01-27T06:35:35.691Z,11.05
2023-01-27T06:41:40.018Z,13.10
2023-01-27T06:44:41.899Z,15.48
2023-01-27T06:47:44.067Z,15.43
2023-01-27T06:50:46.247Z,15.15
2023-01-27T06:53:48.134Z,15.25
2023-01-27T06:56:50.372Z,11.93
2023-01-27T06:59:54.701Z,11.93
2023-01-27T07:02:57.743Z,13.98
2023-01-27T07:05:59.619Z,13.32
2023-01-27T07:09:01.626Z,14.82
2023-01-27T07:12:03.730Z,14.82
2023-01-27T07:15:07.972Z,18.52
2023-01-27T07:18:12.284Z,17.13
2023-01-27T07:21:14.264Z,15.95
2023-01-27T07:24:16.370Z,17.58
2023-01-27T07:27:20.920Z,14.73
2023-01-27T07:33:32.813Z,14.52
2023-01-27T07:36:34.723Z,16.23
2023-01-27T07:39:43.067Z,15.00
2023-01-27T07:42:45.230Z,18.98
2023-01-27T07:45:49.175Z,17.30
2023-01-27T07:48:51.470Z,17.38
2023-01-27T07:51:54.319Z,18.23
2023-01-27T07:54:56.185Z,16.13
2023-01-27T07:57:58.634Z,19.77
2023-01-27T08:01:04.549Z,17.83
2023-01-27T08:04:06.601Z,17.27
2023-01-27T08:07:08.449Z,16.90
2023-01-27T08:10:11.487Z,18.70
2023-01-27T08:13:16.768Z,18.95
2023-01-27T08:16:19.039Z,20.40
2023-01-27T08:19:21.012Z,18.92
2023-01-27T08:22:23.113Z,16.25
2023-01-27T08:25:25.274Z,17.80
2023-01-27T08:28:28.492Z,16.95
2023-01-27T08:31:32.400Z,15.82
2023-01-27T08:34:34.844Z,16.52
2023-01-27T08:37:36.780Z,20.17
2023-01-27T08:40:42.988Z,17.92
2023-01-27T08:43:54.826Z,16.63
2023-01-27T08:46:56.817Z,17.77
2023-01-27T08:49:58.685Z,17.73
2023-01-27T08:53:01.689Z,16.73
2023-01-27T08:56:06.733Z,17.33
2023-01-27T08:59:08.614Z,15.77
2023-01-27T09:02:14.107Z,15.27
2023-01-27T09:05:22.490Z,15.93
2023-01-27T09:08:32.055Z,17.60
2023-01-27T09:11:34.575Z,15.57
2023-01-27T09:14:36.565Z,18.23
2023-01-27T09:17:38.557Z,16.98
2023-01-27T09:20:43.646Z,21.02
2023-01-27T09:23:49.024Z,18.35
2023-01-27T09:26:57.125Z,14.43
2023-01-27T09:29:59.598Z,15.98
2023-01-27T09:33:02.433Z,15.02
2023-01-27T09:36:22.757Z,14.73
2023-01-27T09:39:25.571Z,18.10
2023-01-27T09:42:27.445Z,16.65
2023-01-27T09:45:53.294Z,137.15
2023-01-27T09:49:20.305Z,31.08
2023-01-27T09:52:48.367Z,64.53
2023-01-27T09:56:42.612Z,45.97
2023-01-27T10:00:02.051Z,18.50
2023-01-27T10:03:11.899Z,22.85
2023-01-27T10:06:50.630Z,17.52
2023-01-27T10:10:15.000Z,23.95
2023-01-27T10:13:28.128Z,169.85
2023-01-27T10:16:38.748Z,362.73
2023-01-27T10:20:18.172Z,46.30
2023-01-27T10:23:23.350Z,19.58
2023-01-27T10:26:32.090Z,17.55
2023-01-27T10:44:54.401Z,16.00
2023-01-27T11:00:36.989Z,18.98
2023-01-27T13:28:10.075Z,46.40
2023-01-27T13:47:13.220Z,18.80
2023-01-27T13:59:08.453Z,66.93
2023-01-27T17:27:18.257Z,30.70
2023-01-27T17:30:26.600Z,31.70
2023-01-27T17:33:31.239Z,33.15
2023-01-27T17:36:33.277Z,12.40
2023-01-27T17:39:38.984Z,91.20
2023-01-27T17:42:42.720Z,333.15
2023-01-27T17:45:45.176Z,392.65
2023-01-27T17:51:55.806Z,402.40
2023-01-27T17:56:00.963Z,343.60
2023-01-27T18:02:34.381Z,221.65
2023-01-27T18:05:38.418Z,100.47
2023-01-27T18:08:49.097Z,159.40
2023-01-27T18:12:24.973Z,47.80
2023-01-27T18:15:55.461Z,73.88
2023-01-27T18:19:48.213Z,76.45
2023-01-27T18:23:10.076Z,20.70
2023-01-27T18:30:03.320Z,37.65
2023-01-27T18:54:01.118Z,22.60
2023-01-27T19:09:48.887Z,20.63
2023-01-27T19:13:21.825Z,26.83
2023-01-27T19:26:33.489Z,29.45
2023-01-27T21:31:16.021Z,5.47
2023-01-27T21:34:38.873Z,6.80
2023-01-27T21:50:04.580Z,7.35
2023-01-27T21:56:56.445Z,6.70
2023-01-27T21:59:49.569Z,5.90
2023-01-27T22:02:57.225Z,8.23
2023-01-27T22:05:59.063Z,6.85
2023-01-27T22:09:06.898Z,6.07
2023-01-27T22:12:11.359Z,6.32
2023-01-27T22:15:17.044Z,7.88
2023-01-27T22:46:32.378Z,6.82
2023-01-27T22:56:52.158Z,5.45
2023-01-27T23:00:23.623Z,9.67
2023-01-27T23:03:37.813Z,5.70
2023-01-27T23:06:39.665Z,8.70
2023-01-27T23:17:31.395Z,7.05
2023-01-27T23:20:33.722Z,6.25
2023-01-27T23:23:36.160Z,6.93
2023-01-27T23:26:37.941Z,8.00
2023-01-27T23:29:39.950Z,7.35
2023-01-27T23:32:45.843Z,6.35
2023-01-27T23:35:48.321Z,6.93
2023-01-27T23:38:50.220Z,7.27
2023-01-27T23:42:07.698Z,6.80
2023-01-27T23:45:10.442Z,7.97
2023-01-27T23:48:12.448Z,9.13
2023-01-27T23:51:14.418Z,6.57
2023-01-27T23:54:16.274Z,6.57
2023-01-27T23:57:18.474Z,9.23
